Contact Us:
Email: info@sawbill.com
Phone: (218)663-7150
Fax: (218)663-7980
Mail: 4620 Sawbill Trail
Box 2129
Tofte, MN 55615


Powered by
Movable Type 3.15
 
Sawbill Weather History Archives: January 2004
Current Sawbill Weather History | « December 2003 | February 2004 »


Date

High
Temperature

Low
Temperature

Barometric
Pressure

Relative
Humidity 7AM

9 AM
Temperature

Moisture

Snow

01/31/04 25 -8 30.18 70% 15 .26" 6"
01/30/04 4 -21 29.99 54% -9 0  
01/29/04 -2 -24 29.97 46% -21 0  
01/28/04 -1 -23 30.02 44% -23 0  
01/27/04 22 -4 29.92 55% -4 0  
01/26/04 13 2 29.92 64% 2 .48" 7"
01/25/04 14 -14 30.11 64% 7 0  
01/24/04 11 -21 30.17 46% -14 0  
01/23/04 10 -15 30.12 47% -14 Trace Trace
01/22/04 -2 -22 29.87 52% -6 .04" 1"
01/21/04 20 -22 29.99 46% -21 Trace Trace
01/20/04 17 -9 29.58 72% 17 .2" 4.5"
01/19/04 7 -20 30.23 51% -9 0  
01/18/04 2 -16 30.19 50% -16 0  
01/17/04 24 -12 30.00 53% -12 0  
01/16/04 22 17 29.77 78% 22 .25" 4"
01/15/04 17 1 30.11 74% 17 .11" 4"
01/14/04 16 -5 30.09 58% 2 .02" .5"
01/13/04 13 -5 29.93 59% 3 .25" 4"
01/12/04 24 -5 30.27 55% -5 .04" 2"
01/11/04 26 15 29.91 73% 19 .16" 2"
01/10/04 24 3 29.77 77% 24 .17" 2"
01/09/04 19 3 30.10 69% 14 .13" 2"
01/08/04 17 -10 30.41 60% 3 Trace Trace
01/07/04 18 -8 30.23 51% -8 0  
01/06/04 4 -10 30.04 58% -3 0  
01/05/04 10 -10 29.85 53% -10 0  
01/04/04 10 -14 30.17 49% -14 0  
01/03/04 12 -9 30.19 51% -9 0  
01/02/04 32 6 29.67 65% 6 0  
01/01/04 27 14 29.80 70% 17 0  
 


Home I Trip Planning I Rentals and Outfitting I Reservations I Campgrounds I Sawbill Store I Sawbill News I Contact

© 1997 - 2017, Sawbill Canoe Outfitters, Inc. I Privacy Policy